Time;durP1;ratioP1;P1;durP2;ratioP2;P2;SDS_P1;SDS_P2;PMS_P1;PMS_P2;Temp;Humidity;BMP_temperature;BMP_pressure;BME280_temperature;BME280_humidity;BME280_pressure;Samples;Min_cycle;Max_cycle;Signal;HPM_P1;HPM_P2
2023/12/26 00:04:23;;;;;;;2.95;2.15;;;;;;;-2.86;96.82;97886.63;10411627;28;20445;-66
2023/12/26 00:09:25;;;;;;;5.05;2.30;;;;;;;-2.96;96.43;97891.13;10404589;28;20045;-65
2023/12/26 00:14:27;;;;;;;3.20;2.10;;;;;;;-2.93;96.75;97893.31;10414211;28;20041;-64
2023/12/26 00:19:30;;;;;;;4.25;2.33;;;;;;;-2.99;96.80;97905.88;10436259;28;20045;-65
2023/12/26 00:24:32;;;;;;;2.92;1.90;;;;;;;-2.91;97.00;97912.63;10435173;28;20037;-65
2023/12/26 00:29:34;;;;;;;3.13;2.13;;;;;;;-2.88;97.11;97915.59;10436198;28;20048;-65
2023/12/26 00:34:37;;;;;;;2.58;1.60;;;;;;;-2.92;96.93;97927.13;10408712;28;20104;-65
2023/12/26 00:39:40;;;;;;;5.78;2.42;;;;;;;-2.84;96.49;97921.25;10431199;28;20420;-64
2023/12/26 00:44:42;;;;;;;3.03;1.80;;;;;;;-2.79;96.52;97935.50;10434592;28;20428;-65
2023/12/26 00:49:44;;;;;;;3.20;1.63;;;;;;;-2.78;96.69;97939.81;10429232;28;20544;-64
2023/12/26 00:54:47;;;;;;;2.60;1.70;;;;;;;-2.80;96.78;97941.94;10425167;28;20045;-65
2023/12/26 00:59:50;;;;;;;2.72;1.95;;;;;;;-2.80;96.93;97949.97;10434881;28;20041;-65
2023/12/26 01:04:52;;;;;;;4.38;1.90;;;;;;;-2.84;96.82;97948.88;10449232;28;20049;-66
2023/12/26 01:09:56;;;;;;;3.70;1.85;;;;;;;-2.77;97.13;97943.31;10435489;28;20129;-64
2023/12/26 01:15:00;;;;;;;2.88;1.77;;;;;;;-2.76;96.77;97948.41;10437058;28;20566;-65
2023/12/26 01:20:03;;;;;;;2.97;1.83;;;;;;;-2.80;96.96;97955.34;10440528;28;20045;-65
2023/12/26 01:25:06;;;;;;;3.92;2.30;;;;;;;-2.75;96.81;97952.72;10438886;28;20042;-65
2023/12/26 01:30:09;;;;;;;2.65;1.70;;;;;;;-2.82;96.93;97962.84;10442530;28;20064;-65
2023/12/26 01:35:12;;;;;;;2.85;1.73;;;;;;;-2.78;96.95;97965.81;10434270;28;20048;-64
2023/12/26 01:40:14;;;;;;;2.53;1.92;;;;;;;-2.80;97.09;97979.50;10433227;28;20429;-65
2023/12/26 01:45:18;;;;;;;3.10;2.05;;;;;;;-2.81;97.40;97980.56;10430874;28;20540;-65
2023/12/26 01:50:22;;;;;;;2.90;1.85;;;;;;;-2.82;97.18;97987.00;10430582;28;20048;-64
2023/12/26 01:55:25;;;;;;;2.65;2.00;;;;;;;-2.85;97.38;97997.44;10437960;28;20037;-65
2023/12/26 02:00:27;;;;;;;2.80;1.85;;;;;;;-2.84;97.54;98001.75;10435737;28;20049;-65
2023/12/26 02:05:30;;;;;;;2.28;1.58;;;;;;;-2.92;97.45;98003.06;10441302;28;20034;-65
2023/12/26 02:10:33;;;;;;;2.97;1.60;;;;;;;-2.89;97.68;98018.63;10429832;28;20034;-65
2023/12/26 02:15:36;;;;;;;3.78;1.60;;;;;;;-2.84;97.51;98017.84;10435414;28;20033;-65
2023/12/26 02:20:39;;;;;;;2.75;1.80;;;;;;;-2.84;97.55;98031.28;10434811;28;20516;-65
2023/12/26 02:25:41;;;;;;;3.25;1.85;;;;;;;-2.88;97.57;98035.53;10414103;28;20045;-65
2023/12/26 02:30:44;;;;;;;2.03;1.63;;;;;;;-2.80;97.93;98038.53;10432469;28;20046;-65
2023/12/26 02:35:47;;;;;;;2.97;1.60;;;;;;;-2.83;97.83;98039.06;10429252;28;20033;-65
2023/12/26 02:40:52;;;;;;;3.45;2.22;;;;;;;-2.85;97.94;98040.38;10436418;28;20037;-65
2023/12/26 02:45:55;;;;;;;4.38;2.50;;;;;;;-2.89;97.81;98040.09;10430851;28;20072;-65
2023/12/26 02:50:58;;;;;;;5.55;2.95;;;;;;;-2.86;98.26;98044.13;10430005;28;20038;-65
2023/12/26 02:56:00;;;;;;;6.28;2.88;;;;;;;-2.99;98.19;98048.06;10422822;28;20048;-65
2023/12/26 03:01:04;;;;;;;5.25;2.85;;;;;;;-2.95;98.55;98059.91;10431902;28;20639;-65
2023/12/26 03:06:08;;;;;;;4.65;2.30;;;;;;;-2.97;98.70;98064.72;10415748;28;20045;-65
2023/12/26 03:11:10;;;;;;;5.10;2.60;;;;;;;-3.05;99.25;98063.31;10426298;28;20033;-65
2023/12/26 03:16:17;;;;;;;6.57;2.80;;;;;;;-3.13;98.57;98071.00;10428670;28;20034;-65
2023/12/26 03:21:20;;;;;;;6.05;2.88;;;;;;;-3.19;99.03;98083.56;10414928;28;20033;-65
2023/12/26 03:26:23;;;;;;;4.80;2.90;;;;;;;-3.29;99.18;98093.41;10407585;28;20502;-64
2023/12/26 03:31:25;;;;;;;6.45;2.95;;;;;;;-3.33;99.14;98093.09;10421272;28;20044;-65
2023/12/26 03:36:30;;;;;;;3.83;2.92;;;;;;;-3.39;99.54;98108.34;10442517;28;20037;-66
2023/12/26 03:41:32;;;;;;;4.78;2.47;;;;;;;-3.36;99.74;98107.00;10437714;28;20037;-65
2023/12/26 03:46:34;;;;;;;3.95;2.47;;;;;;;-3.34;100.00;98121.78;10412222;28;20046;-65
2023/12/26 03:51:37;;;;;;;4.25;2.47;;;;;;;-3.47;99.94;98138.28;10428477;28;20088;-64
2023/12/26 03:56:40;;;;;;;3.25;1.92;;;;;;;-3.55;99.88;98136.03;10423461;28;20037;-65
2023/12/26 04:01:42;;;;;;;2.72;1.85;;;;;;;-3.62;99.83;98142.66;10420778;28;20053;-65
2023/12/26 04:06:45;;;;;;;6.15;1.80;;;;;;;-3.53;99.91;98151.88;10429858;28;20385;-66
2023/12/26 04:11:49;;;;;;;2.40;1.63;;;;;;;-3.58;100.00;98154.50;10427241;28;20033;-66
2023/12/26 04:16:52;;;;;;;4.25;1.70;;;;;;;-3.58;99.84;98160.66;10434853;28;20036;-66
2023/12/26 04:21:55;;;;;;;3.90;1.90;;;;;;;-3.58;99.90;98174.06;10446330;28;20398;-65
2023/12/26 04:26:58;;;;;;;2.05;1.52;;;;;;;-3.55;100.00;98189.66;10440682;28;20045;-66
2023/12/26 04:32:02;;;;;;;2.60;1.50;;;;;;;-3.53;100.00;98184.84;10450037;28;20040;-66
2023/12/26 04:37:06;;;;;;;2.47;1.48;;;;;;;-3.47;100.00;98199.09;10443096;28;20037;-67
2023/12/26 04:42:09;;;;;;;5.35;1.70;;;;;;;-3.44;99.95;98199.44;10441525;28;20048;-66
2023/12/26 04:47:12;;;;;;;1.60;1.25;;;;;;;-3.47;99.71;98193.75;10437173;28;20049;-66
2023/12/26 04:52:18;;;;;;;2.95;1.83;;;;;;;-3.41;99.80;98201.63;10459937;28;20048;-66
2023/12/26 04:57:24;;;;;;;;;;;;;;;-3.44;100.00;98209.34;10434183;28;20042;-66
2023/12/26 05:02:26;;;;;;;3.65;1.40;;;;;;;-3.40;100.00;98205.09;10435290;28;19924;-66
2023/12/26 05:07:28;;;;;;;3.55;1.73;;;;;;;-3.41;100.00;98203.47;10437356;28;20048;-66
2023/12/26 05:12:31;;;;;;;3.67;2.00;;;;;;;-3.48;100.00;98218.94;10436164;28;20531;-66
2023/12/26 05:17:33;;;;;;;4.07;1.75;;;;;;;-3.50;99.75;98229.91;10440841;28;20681;-67
2023/12/26 05:22:35;;;;;;;3.38;1.85;;;;;;;-3.57;99.75;98240.00;10441600;28;20045;-67
2023/12/26 05:27:38;;;;;;;2.47;1.90;;;;;;;-3.53;100.00;98241.13;10434521;28;21679;-66
2023/12/26 05:32:41;;;;;;;2.40;1.77;;;;;;;-3.47;100.00;98242.00;10443995;28;20041;-66
2023/12/26 05:37:45;;;;;;;3.20;1.95;;;;;;;-3.51;99.60;98239.00;10437795;28;20040;-66
2023/12/26 05:42:48;;;;;;;3.00;1.40;;;;;;;-3.56;99.48;98252.34;10441207;28;20033;-67
2023/12/26 05:47:51;;;;;;;5.40;2.20;;;;;;;-3.59;99.44;98252.03;10420121;28;20067;-66
2023/12/26 05:52:54;;;;;;;2.97;2.03;;;;;;;-3.64;99.27;98258.16;10443193;28;20536;-67
2023/12/26 05:57:56;;;;;;;2.72;1.67;;;;;;;-3.74;99.05;98268.72;10441537;28;20623;-68
2023/12/26 06:02:59;;;;;;;3.25;2.20;;;;;;;-3.54;99.36;98258.28;10441232;28;20061;-66
2023/12/26 06:08:01;;;;;;;3.08;1.77;;;;;;;-3.74;99.08;98274.09;10437059;28;20047;-66
2023/12/26 06:13:05;;;;;;;4.10;1.58;;;;;;;-3.72;99.17;98290.72;10429347;28;20034;-66
2023/12/26 06:18:09;;;;;;;6.07;1.90;;;;;;;-3.67;99.23;98293.47;10432866;28;20050;-66
2023/12/26 06:23:12;;;;;;;4.32;2.17;;;;;;;-3.63;99.57;98291.13;10424834;28;20129;-66
2023/12/26 06:28:14;;;;;;;2.90;1.63;;;;;;;-3.63;99.20;98291.13;10412985;28;20121;-65
2023/12/26 06:33:19;;;;;;;3.85;2.38;;;;;;;-3.58;99.08;98294.69;10440975;28;20052;-65
2023/12/26 06:38:21;;;;;;;3.05;2.10;;;;;;;-3.57;99.36;98306.22;10438716;28;20044;-66
2023/12/26 06:43:24;;;;;;;4.53;2.78;;;;;;;-3.54;99.49;98308.41;10434885;28;20049;-65
2023/12/26 06:48:26;;;;;;;4.80;2.15;;;;;;;-3.55;99.30;98312.94;10439175;28;20029;-66
2023/12/26 06:53:28;;;;;;;4.90;2.80;;;;;;;-3.62;99.30;98319.56;10423059;28;20041;-67
2023/12/26 06:58:30;;;;;;;3.60;2.40;;;;;;;-3.65;99.07;98331.53;10420608;28;20045;-66
2023/12/26 07:03:34;;;;;;;3.80;2.42;;;;;;;-3.63;99.34;98334.81;10431503;28;20049;-67
2023/12/26 07:08:36;;;;;;;4.85;2.63;;;;;;;-3.52;98.91;98341.94;10440292;28;20037;-67
2023/12/26 07:13:39;;;;;;;4.30;2.92;;;;;;;-3.72;99.20;98342.44;10432363;28;20045;-66
2023/12/26 07:18:41;;;;;;;6.97;2.22;;;;;;;-3.67;99.00;98355.09;10436821;28;20045;-66
2023/12/26 07:23:46;;;;;;;5.40;3.33;;;;;;;-3.66;99.03;98356.72;10422156;28;20433;-66
2023/12/26 07:28:49;;;;;;;3.95;2.90;;;;;;;-3.69;98.99;98357.22;10404679;28;20584;-65
2023/12/26 07:33:51;;;;;;;4.65;2.75;;;;;;;-3.78;98.99;98359.50;10427031;28;20128;-66
2023/12/26 07:38:54;;;;;;;4.22;2.47;;;;;;;-3.78;99.12;98366.75;10431834;28;20033;-66
2023/12/26 07:43:56;;;;;;;4.53;2.28;;;;;;;-3.83;99.36;98372.00;10439053;28;20046;-67
2023/12/26 07:48:59;;;;;;;5.50;3.22;;;;;;;-3.94;98.95;98387.13;10440020;28;20230;-66
2023/12/26 07:54:02;;;;;;;5.20;2.80;;;;;;;-3.93;99.21;98388.72;10445490;28;20052;-66
2023/12/26 07:59:05;;;;;;;7.63;2.97;;;;;;;-3.90;99.37;98404.31;10450278;28;20160;-66
2023/12/26 08:04:07;;;;;;;3.38;1.98;;;;;;;-3.79;99.26;98399.94;10424531;28;20041;-66
2023/12/26 08:09:09;;;;;;;5.10;2.83;;;;;;;-3.62;99.13;98402.63;10431887;28;20056;-66
2023/12/26 08:14:17;;;;;;;5.78;3.28;;;;;;;-3.57;98.86;98400.84;10446212;28;20037;-67
2023/12/26 08:19:20;;;;;;;5.72;3.15;;;;;;;-3.47;97.98;98411.72;10438012;28;20034;-66
2023/12/26 08:24:22;;;;;;;4.93;2.70;;;;;;;-2.68;96.02;98416.81;10432150;28;20055;-67
2023/12/26 08:29:24;;;;;;;7.53;3.08;;;;;;;-2.38;94.25;98421.75;10432128;28;20046;-67
2023/12/26 08:34:27;;;;;;;6.88;3.63;;;;;;;-3.02;92.62;98437.56;10428161;28;20034;-66
2023/12/26 08:39:29;;;;;;;7.93;3.40;;;;;;;-3.41;92.94;98444.78;10428911;28;20041;-66
2023/12/26 08:44:31;;;;;;;6.47;3.67;;;;;;;-3.56;93.43;98447.22;10427890;28;20543;-67
2023/12/26 08:49:34;;;;;;;8.18;3.13;;;;;;;-3.72;94.19;98457.69;10443333;28;20046;-69
2023/12/26 08:54:37;;;;;;;7.75;3.30;;;;;;;-3.74;95.06;98459.78;10426083;28;20049;-65
2023/12/26 08:59:39;;;;;;;8.82;3.35;;;;;;;-3.91;94.90;98469.66;10446559;28;20041;-67
2023/12/26 09:04:42;;;;;;;3.97;2.72;;;;;;;-3.96;95.65;98469.59;10447873;28;20046;-67
2023/12/26 09:09:45;;;;;;;3.53;2.42;;;;;;;-4.09;95.88;98475.22;10418370;28;20038;-67
2023/12/26 09:14:47;;;;;;;4.72;2.50;;;;;;;-4.14;96.02;98489.34;10435053;28;20037;-66
2023/12/26 09:19:50;;;;;;;6.10;3.63;;;;;;;-4.22;96.13;98495.06;10429209;28;20045;-67
2023/12/26 09:24:52;;;;;;;6.00;2.55;;;;;;;-4.14;96.83;98492.03;10432075;28;20037;-67
2023/12/26 09:29:54;;;;;;;6.18;3.17;;;;;;;-4.03;96.67;98506.41;10412603;28;20042;-67
2023/12/26 09:34:56;;;;;;;6.97;3.30;;;;;;;-3.93;96.80;98505.78;10442143;28;20037;-67
2023/12/26 09:39:59;;;;;;;5.50;2.92;;;;;;;-3.90;96.50;98511.47;10435539;28;20057;-66
2023/12/26 09:45:03;;;;;;;8.38;3.40;;;;;;;-3.83;96.51;98516.69;10441039;28;20060;-66
2023/12/26 09:50:06;;;;;;;7.50;2.90;;;;;;;-3.72;96.57;98529.22;10416368;28;20041;-66
2023/12/26 09:55:09;;;;;;;5.97;2.42;;;;;;;-3.75;96.99;98535.06;10440167;28;20048;-67
2023/12/26 10:00:12;;;;;;;6.75;2.40;;;;;;;-3.67;96.86;98545.38;10445076;28;20064;-66
2023/12/26 10:05:15;;;;;;;4.80;2.38;;;;;;;-3.62;96.81;98539.31;10444989;28;20421;-67
2023/12/26 10:10:20;;;;;;;2.83;1.60;;;;;;;-3.53;96.89;98548.59;10431552;28;20037;-67
2023/12/26 10:15:22;;;;;;;4.57;2.55;;;;;;;-3.52;96.92;98540.31;10423283;28;20040;-65
2023/12/26 10:20:30;;;;;;;5.25;2.47;;;;;;;-3.52;96.46;98555.56;10428540;28;20041;-67
2023/12/26 10:25:33;;;;;;;5.32;2.15;;;;;;;-3.43;96.32;98564.88;10429635;28;20544;-67
2023/12/26 10:30:35;;;;;;;4.15;2.28;;;;;;;-3.35;96.49;98567.94;10429306;28;20417;-67
2023/12/26 10:35:38;;;;;;;4.30;2.42;;;;;;;-3.36;95.57;98563.66;10437922;28;20044;-67
2023/12/26 10:40:40;;;;;;;2.92;1.90;;;;;;;-3.24;96.09;98560.91;10436751;28;20072;-65
2023/12/26 10:45:44;;;;;;;5.18;2.55;;;;;;;-3.06;95.55;98565.22;10439390;28;20056;-65
2023/12/26 10:50:48;;;;;;;3.00;2.05;;;;;;;-3.00;95.00;98574.97;10425051;28;20041;-64
2023/12/26 10:55:52;;;;;;;3.88;2.30;;;;;;;-2.92;95.21;98571.06;10432312;28;20044;-65
2023/12/26 11:00:55;;;;;;;5.43;3.17;;;;;;;-2.84;94.50;98584.88;10428023;28;21690;-65
2023/12/26 11:05:57;;;;;;;3.83;2.50;;;;;;;-2.88;94.54;98585.63;10434803;28;20069;-65
2023/12/26 11:11:01;;;;;;;4.00;2.42;;;;;;;-3.03;94.55;98586.19;10434581;28;20160;-65
2023/12/26 11:16:04;;;;;;;5.90;2.70;;;;;;;-2.93;94.79;98588.25;10425318;28;20033;-66
2023/12/26 11:21:07;;;;;;;4.28;2.63;;;;;;;-2.84;95.04;98592.94;10441597;28;20063;-69
2023/12/26 11:26:10;;;;;;;3.92;2.67;;;;;;;-2.96;94.90;98586.84;10419801;28;20034;-67
2023/12/26 11:31:14;;;;;;;3.22;2.30;;;;;;;-2.98;95.15;98594.31;10432135;28;20452;-66
2023/12/26 11:36:16;;;;;;;3.97;2.13;;;;;;;-3.02;95.08;98590.50;10421692;28;20044;-66
2023/12/26 11:41:18;;;;;;;4.25;2.35;;;;;;;-2.99;95.58;98602.59;10424884;28;20128;-66
2023/12/26 11:46:21;;;;;;;3.90;2.63;;;;;;;-3.04;96.01;98614.88;10404147;28;20054;-66
2023/12/26 11:51:26;;;;;;;4.13;2.30;;;;;;;-2.96;96.01;98605.63;10413554;28;20117;-66
2023/12/26 11:56:29;;;;;;;3.53;2.70;;;;;;;-2.80;96.27;98596.75;10424259;28;20038;-66
2023/12/26 12:01:31;;;;;;;5.22;2.88;;;;;;;-2.90;95.82;98603.84;10420790;28;20053;-66
2023/12/26 12:06:34;;;;;;;3.85;2.33;;;;;;;-2.94;95.98;98606.22;10419748;28;20038;-65
2023/12/26 12:11:49;;;;;;;5.47;2.85;;;;;;;-3.00;95.51;98614.41;10412300;28;20127;-64
2023/12/26 12:16:53;;;;;;;7.35;2.47;;;;;;;-3.03;95.93;98619.19;10431612;28;20040;-64
2023/12/26 12:21:56;;;;;;;5.68;2.40;;;;;;;-3.07;96.77;98622.63;10417658;28;20041;-64
2023/12/26 12:27:04;;;;;;;3.95;2.45;;;;;;;-3.12;96.82;98617.16;10414784;28;20038;-62
2023/12/26 12:32:18;;;;;;;4.85;2.85;;;;;;;-3.12;97.10;98615.31;10411168;28;20414;-64
2023/12/26 12:37:21;;;;;;;6.63;3.20;;;;;;;-3.17;97.48;98617.06;10429764;28;20041;-64
2023/12/26 12:42:25;;;;;;;5.28;2.88;;;;;;;-3.12;97.50;98609.13;10432625;28;20041;-65
2023/12/26 12:47:27;;;;;;;4.38;2.80;;;;;;;-3.13;97.63;98610.16;10412662;28;20042;-66
2023/12/26 12:52:31;;;;;;;2.95;2.22;;;;;;;-3.21;97.16;98615.94;10417769;28;20044;-67
2023/12/26 12:57:33;;;;;;;3.35;2.47;;;;;;;-3.29;97.47;98624.38;10450093;28;20052;-67
2023/12/26 13:02:35;;;;;;;4.47;2.60;;;;;;;-3.32;97.90;98625.66;10445872;28;20493;-70
2023/12/26 13:07:38;;;;;;;3.97;2.47;;;;;;;-3.33;97.95;98637.44;10435447;28;20034;-69
2023/12/26 13:12:40;;;;;;;3.17;2.30;;;;;;;-3.39;98.17;98641.88;10430203;28;20041;-68
2023/12/26 13:17:42;;;;;;;3.30;2.05;;;;;;;-3.34;97.75;98643.84;10446874;28;20038;-66
2023/12/26 13:22:44;;;;;;;5.03;2.65;;;;;;;-3.37;98.11;98647.81;10448338;28;20042;-68
2023/12/26 13:27:48;;;;;;;3.47;2.10;;;;;;;-3.29;98.15;98656.56;10431612;28;20508;-68
2023/12/26 13:32:51;;;;;;;2.85;2.13;;;;;;;-3.22;98.05;98658.03;10448001;28;20037;-69
2023/12/26 13:37:53;;;;;;;5.47;3.28;;;;;;;-3.29;97.84;98664.59;10441126;28;20501;-68
2023/12/26 13:42:55;;;;;;;6.00;2.60;;;;;;;-3.28;98.20;98672.41;10432928;28;20033;-66
2023/12/26 13:47:58;;;;;;;6.45;3.17;;;;;;;-3.29;97.90;98672.66;10442580;28;20527;-66
2023/12/26 13:53:01;;;;;;;7.63;4.30;;;;;;;-3.35;97.88;98672.53;10429322;28;20037;-65
2023/12/26 13:58:04;;;;;;;8.93;4.80;;;;;;;-3.43;98.41;98674.78;10412254;28;20037;-66
2023/12/26 14:03:06;;;;;;;8.88;4.32;;;;;;;-3.34;98.27;98670.66;10433695;28;20042;-65
2023/12/26 14:08:08;;;;;;;5.95;4.07;;;;;;;-3.42;98.10;98677.22;10415562;28;20045;-66
2023/12/26 14:13:12;;;;;;;7.50;3.92;;;;;;;-3.30;98.34;98671.00;10419848;28;20042;-67
2023/12/26 14:18:15;;;;;;;4.55;3.72;;;;;;;-3.35;98.73;98672.53;10438246;28;20037;-63
2023/12/26 14:23:17;;;;;;;5.40;3.17;;;;;;;-3.36;98.28;98673.59;10433693;28;20044;-62
2023/12/26 14:28:20;;;;;;;5.38;3.55;;;;;;;-3.35;98.53;98685.13;10439865;28;20044;-62
2023/12/26 14:33:22;;;;;;;5.57;3.85;;;;;;;-3.37;98.45;98682.69;10440128;28;20501;-64
2023/12/26 14:38:25;;;;;;;6.43;4.00;;;;;;;-3.29;98.79;98694.09;10444292;28;20044;-62
2023/12/26 14:43:27;;;;;;;6.05;4.00;;;;;;;-2.73;99.26;98693.25;10443839;28;20057;-62
2023/12/26 14:48:29;;;;;;;6.70;4.20;;;;;;;-2.29;96.73;98701.44;10450820;28;20030;-62
2023/12/26 14:53:32;;;;;;;8.20;5.07;;;;;;;-2.87;96.07;98716.88;10444389;28;20556;-62
2023/12/26 14:58:34;;;;;;;9.05;5.20;;;;;;;-2.99;95.95;98724.16;10428177;28;20040;-61
2023/12/26 15:03:36;;;;;;;7.78;5.28;;;;;;;-2.19;96.82;98707.81;10429288;28;20037;-62
2023/12/26 15:08:39;;;;;;;10.73;5.78;;;;;;;-2.20;93.68;98711.56;10436107;28;20045;-62
2023/12/26 15:13:42;;;;;;;6.55;4.40;;;;;;;-2.07;92.27;98723.84;10413436;28;20041;-62
2023/12/26 15:18:45;;;;;;;8.32;4.80;;;;;;;-2.34;91.89;98726.38;10432026;28;20033;-63
2023/12/26 15:23:51;;;;;;;8.80;5.30;;;;;;;-2.30;92.48;98724.81;10404909;28;20502;-63
2023/12/26 15:28:53;;;;;;;8.80;4.57;;;;;;;-2.34;92.04;98734.44;10420502;28;20386;-63
2023/12/26 15:33:55;;;;;;;8.18;5.20;;;;;;;-2.34;92.28;98738.97;10420345;28;20045;-63
2023/12/26 15:38:58;;;;;;;7.80;4.60;;;;;;;-2.02;92.25;98733.84;10426721;28;20036;-62
2023/12/26 15:44:01;;;;;;;5.32;4.32;;;;;;;-2.40;91.08;98738.09;10426456;28;20057;-63
2023/12/26 15:49:04;;;;;;;7.75;4.95;;;;;;;-2.35;92.17;98740.84;10427430;28;20049;-63
2023/12/26 15:54:06;;;;;;;8.65;4.80;;;;;;;-2.37;91.18;98747.53;10434364;28;20060;-63
2023/12/26 15:59:08;;;;;;;9.52;5.18;;;;;;;-2.51;91.91;98738.97;10436914;28;20048;-62
2023/12/26 16:04:10;;;;;;;6.38;4.38;;;;;;;-2.52;92.20;98748.91;10440523;28;20041;-63
2023/12/26 16:09:13;;;;;;;7.10;4.25;;;;;;;-2.55;91.88;98746.72;10437232;28;20053;-63
2023/12/26 16:14:16;;;;;;;5.32;4.15;;;;;;;-2.59;91.90;98742.06;10419938;28;20044;-63
2023/12/26 16:19:19;;;;;;;7.13;4.32;;;;;;;-2.63;92.32;98740.91;10440140;28;20037;-62
2023/12/26 16:24:21;;;;;;;7.07;4.43;;;;;;;-2.66;92.59;98741.41;10443812;28;20213;-62
2023/12/26 16:29:24;;;;;;;7.88;4.45;;;;;;;-2.92;92.64;98743.63;10444086;28;20045;-63
2023/12/26 16:34:27;;;;;;;8.25;4.20;;;;;;;-3.20;93.08;98744.44;10441295;28;20033;-64
2023/12/26 16:39:30;;;;;;;6.18;4.30;;;;;;;-3.05;93.41;98747.41;10445044;28;20037;-64
2023/12/26 16:44:41;;;;;;;6.93;4.10;;;;;;;-3.13;94.08;98745.09;10448986;28;20057;-64
2023/12/26 16:49:43;;;;;;;6.88;4.78;;;;;;;-3.16;94.45;98750.13;10426800;28;20033;-64
2023/12/26 16:54:49;;;;;;;7.93;4.70;;;;;;;-3.25;94.73;98748.88;10430950;28;20049;-62
2023/12/26 16:59:52;;;;;;;9.35;5.22;;;;;;;-3.22;94.25;98754.59;10441712;28;20029;-62
2023/12/26 17:04:54;;;;;;;8.82;4.82;;;;;;;-3.26;94.72;98753.44;10436753;28;20041;-66
2023/12/26 17:09:57;;;;;;;6.63;4.20;;;;;;;-3.22;94.54;98756.44;10421664;28;20030;-64
2023/12/26 17:15:01;;;;;;;8.90;4.55;;;;;;;-3.46;94.25;98759.19;10431648;28;20033;-67
2023/12/26 17:20:04;;;;;;;6.05;4.28;;;;;;;-3.56;95.18;98767.03;10436216;28;20042;-67
2023/12/26 17:25:07;;;;;;;5.85;3.70;;;;;;;-3.50;95.57;98765.25;10444327;28;20052;-67
2023/12/26 17:30:10;;;;;;;6.75;4.22;;;;;;;-3.57;96.15;98757.34;10440605;28;20040;-67
2023/12/26 17:35:12;;;;;;;8.88;4.95;;;;;;;-3.59;96.22;98772.84;10431368;28;20042;-64
2023/12/26 17:40:18;;;;;;;7.25;4.72;;;;;;;-3.66;96.44;98774.81;10433955;28;20040;-65
2023/12/26 17:45:22;;;;;;;10.23;5.68;;;;;;;-3.59;96.60;98772.84;10427284;28;20045;-69
2023/12/26 17:50:24;;;;;;;11.90;5.93;;;;;;;-3.55;96.53;98781.22;10439721;28;20041;-68
2023/12/26 17:55:27;;;;;;;9.20;5.07;;;;;;;-3.61;96.09;98787.53;10415746;28;20132;-68
2023/12/26 18:00:30;;;;;;;9.10;5.13;;;;;;;-3.69;96.15;98786.03;10428964;28;20060;-64
2023/12/26 18:05:33;;;;;;;12.23;4.93;;;;;;;-3.75;96.28;98792.31;10437182;28;20041;-66
2023/12/26 18:10:35;;;;;;;7.65;5.05;;;;;;;-3.86;96.37;98787.78;10445033;28;20038;-63
2023/12/26 18:15:37;;;;;;;8.52;5.45;;;;;;;-3.90;96.54;98794.66;10445330;28;20045;-64
2023/12/26 18:20:42;;;;;;;9.27;5.60;;;;;;;-4.06;97.23;98799.66;10448741;28;20041;-64
2023/12/26 18:25:44;;;;;;;7.53;5.60;;;;;;;-4.12;97.47;98805.94;10461533;28;20029;-64
2023/12/26 18:30:47;;;;;;;8.45;5.60;;;;;;;-4.12;97.92;98808.63;10459232;28;20136;-63
2023/12/26 18:35:49;;;;;;;10.82;6.60;;;;;;;-4.13;98.15;98820.38;10450707;28;20048;-63
2023/12/26 18:40:52;;;;;;;11.75;6.90;;;;;;;-4.14;98.72;98809.91;10443257;28;20325;-65
2023/12/26 18:45:55;;;;;;;10.00;7.00;;;;;;;-4.22;98.53;98816.41;10439701;28;20442;-65
2023/12/26 18:51:00;;;;;;;8.48;6.65;;;;;;;-4.35;98.72;98813.91;10424022;28;20049;-65
2023/12/26 18:56:12;;;;;;;9.50;6.38;;;;;;;-4.27;98.75;98821.63;10437966;28;20049;-66
2023/12/26 19:01:15;;;;;;;9.88;6.72;;;;;;;-4.16;99.30;98826.22;10430152;28;20053;-64
2023/12/26 19:06:17;;;;;;;8.27;6.00;;;;;;;-4.16;99.54;98828.06;10421809;28;20033;-65
2023/12/26 19:11:21;;;;;;;10.40;6.47;;;;;;;-4.07;99.41;98832.84;10441243;28;20033;-65
2023/12/26 19:16:23;;;;;;;12.60;6.65;;;;;;;-4.09;99.54;98829.59;10426130;28;20041;-64
2023/12/26 19:21:25;;;;;;;12.60;5.78;;;;;;;-4.11;99.03;98830.88;10417819;28;20421;-63
2023/12/26 19:26:28;;;;;;;11.68;6.22;;;;;;;-4.02;99.07;98835.63;10428850;28;20045;-65
2023/12/26 19:31:30;;;;;;;10.07;5.80;;;;;;;-3.88;98.58;98833.56;10422234;28;20041;-65
2023/12/26 19:36:33;;;;;;;9.30;5.35;;;;;;;-3.97;98.32;98832.28;10432118;28;20037;-65
2023/12/26 19:41:37;;;;;;;10.00;5.50;;;;;;;-3.95;98.02;98835.53;10448815;28;20424;-65
2023/12/26 19:46:40;;;;;;;8.05;4.50;;;;;;;-3.96;97.70;98836.59;10441217;28;20053;-64
2023/12/26 19:51:42;;;;;;;8.60;5.20;;;;;;;-3.94;97.81;98831.81;10414434;28;20037;-65
2023/12/26 19:56:46;;;;;;;9.88;5.10;;;;;;;-3.79;97.36;98842.09;10421962;28;20030;-65
2023/12/26 20:01:48;;;;;;;9.32;5.03;;;;;;;-3.83;97.17;98843.56;10428732;28;20037;-65
2023/12/26 20:06:50;;;;;;;8.35;5.32;;;;;;;-3.77;97.47;98831.94;10417520;28;20057;-62
2023/12/26 20:11:54;;;;;;;8.95;5.38;;;;;;;-3.63;97.20;98833.34;10413540;28;20034;-63
2023/12/26 20:16:58;;;;;;;9.45;5.50;;;;;;;-3.59;97.13;98831.81;10410513;28;20120;-64
2023/12/26 20:22:01;;;;;;;7.00;4.40;;;;;;;-2.56;98.73;98825.63;10403682;28;20697;-64
2023/12/26 20:27:03;;;;;;;8.27;4.43;;;;;;;-2.90;97.07;98824.72;10409929;28;20042;-63
2023/12/26 20:32:07;;;;;;;7.70;4.35;;;;;;;-2.72;94.95;98830.94;10425606;28;20037;-62
2023/12/26 20:37:09;;;;;;;7.53;4.05;;;;;;;-1.75;90.60;98828.88;10422011;28;20034;-63
2023/12/26 20:42:14;;;;;;;7.38;5.00;;;;;;;-1.80;88.39;98828.78;10403019;28;20547;-63
2023/12/26 20:47:17;;;;;;;7.38;5.22;;;;;;;-2.47;88.62;98832.22;10423597;28;20058;-64
2023/12/26 20:52:20;;;;;;;6.93;4.30;;;;;;;-2.99;91.42;98839.53;10430867;28;20044;-64
2023/12/26 20:57:22;;;;;;;6.32;4.20;;;;;;;-3.18;92.25;98846.13;10436490;28;20075;-64
2023/12/26 21:02:25;;;;;;;7.35;4.65;;;;;;;-3.15;93.34;98851.00;10425112;28;20112;-62
2023/12/26 21:07:27;;;;;;;9.80;5.07;;;;;;;-3.23;93.88;98849.50;10430082;28;20038;-62
2023/12/26 21:12:29;;;;;;;8.20;5.30;;;;;;;-3.25;94.33;98851.63;10408357;28;20049;-62
2023/12/26 21:17:32;;;;;;;7.95;5.63;;;;;;;-3.23;95.27;98852.19;10417109;28;20030;-63
2023/12/26 21:22:34;;;;;;;11.20;5.50;;;;;;;-3.21;95.52;98846.59;10434402;28;20050;-63
2023/12/26 21:27:36;;;;;;;9.32;5.55;;;;;;;-3.15;95.36;98854.50;10438787;28;20038;-63
2023/12/26 21:32:39;;;;;;;7.80;5.50;;;;;;;-3.13;95.94;98849.72;10433837;28;20463;-63
2023/12/26 21:37:41;;;;;;;10.98;5.97;;;;;;;-3.09;95.94;98845.53;10435160;28;20033;-62
2023/12/26 21:42:44;;;;;;;8.65;4.95;;;;;;;-3.12;95.68;98845.19;10416642;28;20048;-61
2023/12/26 21:47:46;;;;;;;9.00;4.35;;;;;;;-3.15;95.76;98848.31;10449851;28;20067;-62
2023/12/26 21:52:49;;;;;;;10.60;5.40;;;;;;;-3.25;96.65;98854.31;10434179;28;20049;-63
2023/12/26 21:57:51;;;;;;;9.95;5.45;;;;;;;-3.23;96.78;98849.50;10434487;28;20097;-64
2023/12/26 22:02:54;;;;;;;10.20;5.15;;;;;;;-3.24;96.95;98844.38;10432430;28;20040;-65
2023/12/26 22:07:56;;;;;;;11.95;6.35;;;;;;;-3.26;97.17;98851.84;10425353;28;20049;-62
2023/12/26 22:12:59;;;;;;;9.40;6.05;;;;;;;-3.24;97.18;98849.75;10430346;28;20034;-62
2023/12/26 22:18:03;;;;;;;12.05;6.22;;;;;;;-3.30;96.97;98848.00;10413948;28;20045;-62
2023/12/26 22:23:06;;;;;;;14.43;7.68;;;;;;;-3.23;97.24;98854.06;10410561;28;20038;-63
2023/12/26 22:28:08;;;;;;;23.90;11.20;;;;;;;-3.27;96.91;98852.91;10428074;28;20045;-63
2023/12/26 22:33:11;;;;;;;15.55;7.95;;;;;;;-3.24;96.97;98847.88;10420957;28;20071;-63
2023/12/26 22:38:15;;;;;;;12.60;6.90;;;;;;;-3.33;96.92;98855.47;10412465;28;20042;-62
2023/12/26 22:43:17;;;;;;;9.68;5.88;;;;;;;-3.38;96.78;98852.69;10422218;28;20045;-62
2023/12/26 22:48:19;;;;;;;9.75;5.50;;;;;;;-3.39;96.53;98859.09;10430411;28;20050;-62
2023/12/26 22:53:29;;;;;;;9.75;5.65;;;;;;;-3.29;96.96;98861.19;10453432;28;20048;-63
2023/12/26 22:58:31;;;;;;;9.00;5.60;;;;;;;-3.15;97.04;98867.91;10425892;28;20033;-62
2023/12/26 23:03:37;;;;;;;7.65;4.35;;;;;;;-3.14;96.83;98869.53;10426668;28;20050;-62
2023/12/26 23:08:39;;;;;;;7.63;4.60;;;;;;;-3.12;96.06;98863.97;10421159;28;20140;-62
2023/12/26 23:13:42;;;;;;;6.80;4.43;;;;;;;-3.13;96.30;98865.00;10423662;28;20044;-62
2023/12/26 23:18:44;;;;;;;7.03;4.22;;;;;;;-3.20;95.95;98856.28;10440083;28;20504;-62
2023/12/26 23:23:47;;;;;;;6.90;4.28;;;;;;;-3.22;96.04;98861.88;10433062;28;20044;-62
2023/12/26 23:28:49;;;;;;;5.25;3.97;;;;;;;-3.19;95.92;98874.00;10401754;28;20038;-62